Terminal Aerodrome Forecast
Issued by NWS

Home | Current Version | Previous Version | Text Only | Print | Product List | Glossary On
Versions: 1 2 3 4 5 6 7 8 9 10 11 12 13 14 15 16 17 18 19 20 21 22 23 24 25 26 27 28 29 30
000
FTUS43 KDMX 211135
TAFOTM
TAF
KOTM 211135Z 2112/2212 12004KT P6SM SKC
     FM211700 15010KT P6SM SCT100 BKN250
     FM212300 15008KT P6SM SCT050 BKN080
     FM220100 16008KT 6SM -FZDZ BR SCT007 OVC014
     FM220700 17008KT 4SM -DZ BR SCT003 OVC010=

USA.gov is the U.S. government's official web portal to all federal, state and local government web resources and services.